createdAt,value
2018-10-17T00:01:37.100Z,99.90
2018-10-17T00:04:06.801Z,99.90
2018-10-17T00:06:35.968Z,99.90
2018-10-17T00:09:08.413Z,99.90
2018-10-17T00:11:37.942Z,99.90
2018-10-17T00:14:07.531Z,99.90
2018-10-17T00:16:36.827Z,99.90
2018-10-17T00:19:06.153Z,99.90
2018-10-17T00:21:35.165Z,99.90
2018-10-17T00:24:04.368Z,99.90
2018-10-17T00:26:33.904Z,99.90
2018-10-17T00:29:02.932Z,99.90
2018-10-17T00:31:32.004Z,99.90
2018-10-17T00:34:01.108Z,99.90
2018-10-17T00:36:30.174Z,99.90
2018-10-17T00:38:59.468Z,99.90
2018-10-17T00:41:28.564Z,99.90
2018-10-17T00:43:57.613Z,99.90
2018-10-17T00:46:26.985Z,99.90
2018-10-17T00:48:56.149Z,99.90
2018-10-17T00:51:25.132Z,99.90
2018-10-17T00:53:54.288Z,99.90
2018-10-17T00:56:23.381Z,99.90
2018-10-17T00:59:13.182Z,99.90
2018-10-17T01:01:42.176Z,99.90
2018-10-17T01:04:11.466Z,99.90
2018-10-17T01:06:40.808Z,99.90
2018-10-17T01:09:11.710Z,99.90
2018-10-17T01:11:41.140Z,99.90
2018-10-17T01:14:10.608Z,99.90
2018-10-17T01:16:39.760Z,99.90
2018-10-17T01:19:09.311Z,99.90
2018-10-17T01:21:38.338Z,99.90
2018-10-17T01:24:07.364Z,99.90
2018-10-17T01:26:36.501Z,99.90
2018-10-17T01:29:05.740Z,99.90
2018-10-17T01:31:34.777Z,99.90
2018-10-17T01:34:03.847Z,99.90
2018-10-17T01:36:32.876Z,99.90
2018-10-17T01:39:01.924Z,99.90
2018-10-17T01:41:31.068Z,99.90
2018-10-17T01:44:00.108Z,99.90
2018-10-17T01:46:29.137Z,99.90
2018-10-17T01:48:58.244Z,99.90
2018-10-17T01:51:27.312Z,99.90
2018-10-17T01:53:56.389Z,99.90
2018-10-17T01:56:26.060Z,99.90
2018-10-17T01:58:55.207Z,99.90
2018-10-17T02:01:24.536Z,99.90
2018-10-17T02:03:53.700Z,99.90
2018-10-17T02:06:22.785Z,99.90
2018-10-17T02:08:51.908Z,99.90
2018-10-17T02:11:20.964Z,99.90
2018-10-17T02:13:50.037Z,99.90
2018-10-17T02:16:19.088Z,99.90
2018-10-17T02:18:48.238Z,99.90
2018-10-17T02:21:17.358Z,99.90
2018-10-17T02:23:46.472Z,99.90
2018-10-17T02:26:15.568Z,99.90
2018-10-17T02:28:44.630Z,99.90
2018-10-17T02:31:13.775Z,99.90
2018-10-17T02:33:42.823Z,99.90
2018-10-17T02:36:11.925Z,99.90
2018-10-17T02:38:40.987Z,99.90
2018-10-17T02:41:10.107Z,99.90
2018-10-17T02:43:39.184Z,99.90
2018-10-17T02:46:08.221Z,99.90
2018-10-17T02:48:37.397Z,99.90
2018-10-17T02:51:06.548Z,99.90
2018-10-17T02:53:35.604Z,99.90
2018-10-17T02:56:04.701Z,99.90
2018-10-17T02:58:33.804Z,99.90
2018-10-17T03:01:02.944Z,99.90
2018-10-17T03:03:32.537Z,99.90
2018-10-17T03:06:01.683Z,99.90
2018-10-17T03:08:30.733Z,99.90
2018-10-17T03:10:59.851Z,99.90
2018-10-17T03:13:28.921Z,99.90
2018-10-17T03:15:57.988Z,99.90
2018-10-17T03:18:28.172Z,99.90
2018-10-17T03:20:58.104Z,99.90
2018-10-17T03:23:27.189Z,99.90
2018-10-17T03:25:56.524Z,99.90
2018-10-17T03:28:25.616Z,99.90
2018-10-17T03:30:54.789Z,99.90
2018-10-17T03:33:23.779Z,99.90
2018-10-17T03:35:53.413Z,99.90
2018-10-17T03:38:22.512Z,99.90
2018-10-17T03:40:51.618Z,99.90
2018-10-17T03:43:20.892Z,99.90
2018-10-17T03:45:49.993Z,99.90
2018-10-17T03:48:19.016Z,99.90
2018-10-17T03:50:48.116Z,99.90
2018-10-17T03:53:17.315Z,99.90
2018-10-17T03:55:46.368Z,99.90
2018-10-17T03:58:15.476Z,99.90
2018-10-17T04:00:44.597Z,99.90
2018-10-17T04:03:13.709Z,99.90
2018-10-17T04:05:42.740Z,99.90
2018-10-17T04:08:11.843Z,99.90
2018-10-17T04:10:40.900Z,99.90
2018-10-17T04:13:10.104Z,99.90
2018-10-17T04:15:39.192Z,99.90
2018-10-17T04:18:08.292Z,99.90
2018-10-17T04:20:37.463Z,99.90
2018-10-17T04:23:06.639Z,99.90
2018-10-17T04:25:35.576Z,99.90
2018-10-17T04:28:05.034Z,99.90
2018-10-17T04:30:34.072Z,99.90
2018-10-17T04:33:03.136Z,99.90
2018-10-17T04:35:32.216Z,99.90
2018-10-17T04:38:01.352Z,99.90
2018-10-17T04:40:30.384Z,99.90
2018-10-17T04:42:59.589Z,99.90
2018-10-17T04:45:29.188Z,99.90
2018-10-17T04:47:58.285Z,99.90
2018-10-17T04:50:27.728Z,99.90
2018-10-17T04:52:56.887Z,99.90
2018-10-17T04:55:25.888Z,99.90
2018-10-17T04:57:54.916Z,99.90
2018-10-17T05:00:24.068Z,99.90
2018-10-17T05:02:53.116Z,99.90
2018-10-17T05:05:22.209Z,99.90
2018-10-17T05:07:51.281Z,99.90
2018-10-17T05:10:20.392Z,99.90
2018-10-17T05:12:49.490Z,99.90
2018-10-17T05:15:18.598Z,99.90
2018-10-17T05:17:47.738Z,99.90
2018-10-17T05:20:17.364Z,99.90
2018-10-17T05:22:46.500Z,99.90
2018-10-17T05:25:15.595Z,99.90
2018-10-17T05:27:44.666Z,99.90
2018-10-17T05:30:13.769Z,99.90
2018-10-17T05:32:42.871Z,99.90
2018-10-17T05:35:12.140Z,99.90
2018-10-17T05:37:42.163Z,99.90
2018-10-17T05:40:11.248Z,99.90
2018-10-17T05:42:40.420Z,99.90
2018-10-17T05:45:09.596Z,99.90
2018-10-17T05:47:38.644Z,99.90
2018-10-17T05:50:07.752Z,99.90
2018-10-17T05:52:37.136Z,99.90
2018-10-17T05:55:06.868Z,99.90
2018-10-17T05:57:35.863Z,99.90
2018-10-17T06:00:06.860Z,99.90
2018-10-17T06:02:37.239Z,99.90
2018-10-17T06:05:08.038Z,99.90
2018-10-17T06:07:37.188Z,99.90
2018-10-17T06:10:08.182Z,99.90
2018-10-17T06:12:37.300Z,99.90
2018-10-17T06:15:07.017Z,99.90
2018-10-17T06:17:36.621Z,99.90
2018-10-17T06:20:06.945Z,99.90
2018-10-17T06:22:36.065Z,99.90
2018-10-17T06:25:06.111Z,99.90
2018-10-17T06:27:35.212Z,99.90
2018-10-17T06:30:05.372Z,99.90
2018-10-17T06:32:34.412Z,99.90
2018-10-17T06:35:03.554Z,99.90
2018-10-17T06:37:32.744Z,99.90
2018-10-17T06:40:02.260Z,99.90
2018-10-17T06:42:31.365Z,99.90
2018-10-17T06:45:00.412Z,99.90
2018-10-17T06:47:29.961Z,99.90
2018-10-17T06:49:58.976Z,99.90
2018-10-17T06:52:28.424Z,99.90
2018-10-17T06:54:57.582Z,99.90
2018-10-17T06:57:26.653Z,99.90
2018-10-17T06:59:55.772Z,99.90
2018-10-17T07:02:24.971Z,99.90
2018-10-17T07:04:54.020Z,99.90
2018-10-17T07:07:23.450Z,99.90
2018-10-17T07:09:52.505Z,99.90
2018-10-17T07:12:21.632Z,99.90
2018-10-17T07:14:50.740Z,99.90
2018-10-17T07:17:19.796Z,98.40
2018-10-17T07:19:48.927Z,96.10
2018-10-17T07:22:18.004Z,93.30
2018-10-17T07:24:47.058Z,91.50
2018-10-17T07:27:16.460Z,90.30
2018-10-17T07:29:45.704Z,89.20
2018-10-17T07:32:14.661Z,91.00
2018-10-17T07:34:43.720Z,92.10
2018-10-17T07:37:13.101Z,96.90
2018-10-17T07:39:42.358Z,99.90
2018-10-17T07:42:11.554Z,99.90
2018-10-17T07:44:40.704Z,99.90
2018-10-17T07:47:09.896Z,99.90
2018-10-17T07:49:40.013Z,99.90
2018-10-17T07:52:09.691Z,99.00
2018-10-17T07:54:38.984Z,97.30
2018-10-17T07:57:08.060Z,95.60
2018-10-17T07:59:37.236Z,94.10
2018-10-17T08:02:06.716Z,93.90
2018-10-17T08:04:35.776Z,92.40
2018-10-17T08:07:05.496Z,90.10
2018-10-17T08:09:34.554Z,88.20
2018-10-17T08:12:03.670Z,85.40
2018-10-17T08:14:32.716Z,85.10
2018-10-17T08:17:01.798Z,82.50
2018-10-17T08:19:30.872Z,79.90
2018-10-17T08:21:59.965Z,77.20
2018-10-17T08:24:29.076Z,75.00
2018-10-17T08:26:58.151Z,72.80
2018-10-17T08:29:27.277Z,73.30
2018-10-17T08:31:56.748Z,73.90
2018-10-17T08:34:25.833Z,73.30
2018-10-17T08:36:55.256Z,74.20
2018-10-17T08:39:24.073Z,72.50
2018-10-17T08:41:53.128Z,71.90
2018-10-17T08:44:22.264Z,71.50
2018-10-17T08:46:51.745Z,67.80
2018-10-17T08:49:20.864Z,65.20
2018-10-17T08:51:49.956Z,63.30
2018-10-17T08:54:19.116Z,64.30
2018-10-17T08:56:48.281Z,71.20
2018-10-17T08:59:17.390Z,75.30
2018-10-17T09:01:46.508Z,70.80
2018-10-17T09:04:15.820Z,66.00
2018-10-17T09:06:44.905Z,62.40
2018-10-17T09:09:14.440Z,59.80
2018-10-17T09:11:43.664Z,58.50
2018-10-17T09:14:13.464Z,61.30
2018-10-17T09:16:42.570Z,59.90
2018-10-17T09:19:11.720Z,58.20
2018-10-17T09:21:41.136Z,56.90
2018-10-17T09:24:10.497Z,57.00
2018-10-17T09:26:39.698Z,57.10
2018-10-17T09:29:08.950Z,56.70
2018-10-17T09:31:38.032Z,56.70
2018-10-17T09:34:07.129Z,56.30
2018-10-17T09:36:36.189Z,56.10
2018-10-17T09:39:07.913Z,57.70
2018-10-17T09:41:36.997Z,56.30
2018-10-17T09:44:06.126Z,53.70
2018-10-17T09:46:35.268Z,55.90
2018-10-17T09:49:04.481Z,59.60
2018-10-17T09:51:33.792Z,58.30
2018-10-17T09:54:02.945Z,55.10
2018-10-17T09:56:32.011Z,53.40
2018-10-17T09:59:01.148Z,52.90
2018-10-17T10:01:34.268Z,52.90
2018-10-17T10:04:03.391Z,51.30
2018-10-17T10:06:32.532Z,55.20
2018-10-17T10:09:01.856Z,61.00
2018-10-17T10:11:30.915Z,58.30
2018-10-17T10:14:00.037Z,58.30
2018-10-17T10:16:29.100Z,57.00
2018-10-17T10:18:58.616Z,57.40
2018-10-17T10:21:27.947Z,56.40
2018-10-17T10:23:57.103Z,56.00
2018-10-17T10:26:26.325Z,56.00
2018-10-17T10:28:55.572Z,57.50
2018-10-17T10:31:25.220Z,54.80
2018-10-17T10:33:54.388Z,53.20
2018-10-17T10:36:23.789Z,50.90
2018-10-17T10:38:52.891Z,51.70
2018-10-17T10:41:22.165Z,50.60
2018-10-17T10:43:51.362Z,54.10
2018-10-17T10:46:20.436Z,58.40
2018-10-17T10:48:49.594Z,59.70
2018-10-17T10:51:18.679Z,58.00
2018-10-17T10:53:47.729Z,59.30
2018-10-17T10:56:16.966Z,57.70
2018-10-17T10:58:46.172Z,56.50
2018-10-17T11:01:15.074Z,53.90
2018-10-17T11:03:44.153Z,51.30
2018-10-17T11:06:13.272Z,55.90
2018-10-17T11:08:42.640Z,57.70
2018-10-17T11:11:12.650Z,56.10
2018-10-17T11:13:41.612Z,61.30
2018-10-17T11:16:11.700Z,60.60
2018-10-17T11:18:40.863Z,57.60
2018-10-17T11:21:10.230Z,55.80
2018-10-17T11:23:39.363Z,58.00
2018-10-17T11:26:08.468Z,61.70
2018-10-17T11:28:37.589Z,60.80
2018-10-17T11:31:07.013Z,60.50
2018-10-17T11:33:36.133Z,58.90
2018-10-17T11:36:05.225Z,57.40
2018-10-17T11:38:34.344Z,58.90
2018-10-17T11:41:03.489Z,60.10
2018-10-17T11:43:32.593Z,57.10
2018-10-17T11:46:01.732Z,56.80
2018-10-17T11:48:30.956Z,55.70
2018-10-17T11:51:00.059Z,54.60
2018-10-17T11:53:30.151Z,52.60
2018-10-17T11:55:59.188Z,52.40
2018-10-17T11:58:28.482Z,54.00
2018-10-17T12:00:57.636Z,54.60
2018-10-17T12:03:26.926Z,54.10
2018-10-17T12:05:56.197Z,54.90
2018-10-17T12:08:24.988Z,54.80
2018-10-17T12:10:54.121Z,53.90
2018-10-17T12:13:23.242Z,53.20
2018-10-17T12:15:52.324Z,55.80
2018-10-17T12:18:21.425Z,55.10
2018-10-17T12:20:50.524Z,54.70
2018-10-17T12:23:19.658Z,54.40
2018-10-17T12:25:48.755Z,54.80
2018-10-17T12:28:17.966Z,54.90
2018-10-17T12:30:47.020Z,53.00
2018-10-17T12:33:16.193Z,52.50
2018-10-17T12:35:45.204Z,55.20
2018-10-17T12:38:14.307Z,55.00
2018-10-17T12:40:43.626Z,54.50
2018-10-17T12:43:12.620Z,52.60
2018-10-17T12:45:41.800Z,53.30
2018-10-17T12:48:10.872Z,52.70
2018-10-17T12:50:40.016Z,50.90
2018-10-17T12:53:09.186Z,52.60
2018-10-17T12:55:38.565Z,53.20
2018-10-17T12:58:07.705Z,54.20
2018-10-17T13:00:36.966Z,53.50
2018-10-17T13:03:06.287Z,52.70
2018-10-17T13:05:35.602Z,53.40
2018-10-17T13:08:04.829Z,55.80
2018-10-17T13:10:33.904Z,56.10
2018-10-17T13:13:03.005Z,55.00
2018-10-17T13:15:32.149Z,53.00
2018-10-17T13:18:01.281Z,52.70
2018-10-17T13:20:30.580Z,53.30
2018-10-17T13:22:59.723Z,54.60
2018-10-17T13:25:28.782Z,52.50
2018-10-17T13:27:57.880Z,53.00
2018-10-17T13:30:26.969Z,51.80
2018-10-17T13:32:56.120Z,50.90
2018-10-17T13:35:25.189Z,49.80
2018-10-17T13:37:54.438Z,49.50
2018-10-17T13:40:23.476Z,52.60
2018-10-17T13:42:52.624Z,54.00
2018-10-17T13:45:21.795Z,54.60
2018-10-17T13:47:50.903Z,54.40
2018-10-17T13:50:20.005Z,55.30
2018-10-17T13:52:49.116Z,56.30
2018-10-17T13:55:18.188Z,56.20
2018-10-17T13:57:47.268Z,56.70
2018-10-17T14:00:16.376Z,57.60
2018-10-17T14:02:45.508Z,59.10
2018-10-17T14:05:14.948Z,60.00
2018-10-17T14:07:44.004Z,61.60
2018-10-17T14:10:13.076Z,62.60
2018-10-17T14:12:42.185Z,62.50
2018-10-17T14:15:11.307Z,61.70
2018-10-17T14:17:40.428Z,63.00
2018-10-17T14:20:09.489Z,63.10
2018-10-17T14:22:38.589Z,63.10
2018-10-17T14:25:07.661Z,64.60
2018-10-17T14:27:36.737Z,63.00
2018-10-17T14:30:07.558Z,64.50
2018-10-17T14:32:36.613Z,66.00
2018-10-17T14:35:08.784Z,66.60
2018-10-17T14:37:37.898Z,68.20
2018-10-17T14:40:07.194Z,69.10
2018-10-17T14:42:36.348Z,69.80
2018-10-17T14:45:07.227Z,69.30
2018-10-17T14:47:36.320Z,70.50
2018-10-17T14:50:05.612Z,71.80
2018-10-17T14:52:35.072Z,72.30
2018-10-17T14:55:04.264Z,73.00
2018-10-17T14:57:33.377Z,73.90
2018-10-17T15:00:02.496Z,74.50
2018-10-17T15:02:31.585Z,73.60
2018-10-17T15:05:00.758Z,73.60
2018-10-17T15:07:29.884Z,73.60
2018-10-17T15:09:58.989Z,73.40
2018-10-17T15:12:28.056Z,74.40
2018-10-17T15:14:57.345Z,75.80
2018-10-17T15:17:26.484Z,76.00
2018-10-17T15:19:55.567Z,75.90
2018-10-17T15:22:24.652Z,75.80
2018-10-17T15:24:54.111Z,75.80
2018-10-17T15:27:23.188Z,76.90
2018-10-17T15:29:52.297Z,78.30
2018-10-17T15:32:21.344Z,78.70
2018-10-17T15:34:50.616Z,79.60
2018-10-17T15:37:19.651Z,80.00
2018-10-17T15:39:48.694Z,79.80
2018-10-17T15:42:18.161Z,80.40
2018-10-17T15:44:47.157Z,82.20
2018-10-17T15:47:16.280Z,82.90
2018-10-17T15:49:45.531Z,84.10
2018-10-17T15:52:14.592Z,84.40
2018-10-17T15:54:43.725Z,88.40
2018-10-17T15:57:12.931Z,88.10
2018-10-17T15:59:41.891Z,89.30
2018-10-17T16:02:11.095Z,90.10
2018-10-17T16:04:40.161Z,90.70
2018-10-17T16:07:09.308Z,92.60
2018-10-17T16:09:38.343Z,93.80
2018-10-17T16:12:07.479Z,95.40
2018-10-17T16:14:36.900Z,96.00
2018-10-17T16:17:06.381Z,97.20
2018-10-17T16:19:35.465Z,98.70
2018-10-17T16:22:04.853Z,99.90
2018-10-17T16:24:33.948Z,99.90
2018-10-17T16:27:02.984Z,99.90
2018-10-17T16:29:32.085Z,99.90
2018-10-17T16:32:01.235Z,99.90
2018-10-17T16:34:30.284Z,99.90
2018-10-17T16:36:59.397Z,99.90
2018-10-17T16:39:28.533Z,99.90
2018-10-17T16:41:57.602Z,99.90
2018-10-17T16:44:26.808Z,99.90
2018-10-17T16:46:55.909Z,99.90
2018-10-17T16:49:25.073Z,99.90
2018-10-17T16:51:54.152Z,99.90
2018-10-17T16:54:23.228Z,99.90
2018-10-17T16:56:52.339Z,99.90
2018-10-17T16:59:21.490Z,99.90
2018-10-17T17:01:50.585Z,99.90
2018-10-17T17:04:19.733Z,99.90
2018-10-17T17:06:48.852Z,99.90
2018-10-17T17:09:18.013Z,99.90
2018-10-17T17:11:47.037Z,99.90
2018-10-17T17:14:16.165Z,99.90
2018-10-17T17:16:45.269Z,99.90
2018-10-17T17:19:14.548Z,99.90
2018-10-17T17:21:43.643Z,99.90
2018-10-17T17:24:13.007Z,99.90
2018-10-17T17:26:41.984Z,99.90
2018-10-17T17:29:11.064Z,99.90
2018-10-17T17:31:40.176Z,99.90
2018-10-17T17:34:09.244Z,99.90
2018-10-17T17:36:38.373Z,99.90
2018-10-17T17:39:09.233Z,99.90
2018-10-17T17:41:38.519Z,99.90
2018-10-17T17:44:07.609Z,99.90
2018-10-17T17:46:36.761Z,99.90
2018-10-17T17:49:05.901Z,99.90
2018-10-17T17:51:34.960Z,99.90
2018-10-17T17:54:04.017Z,99.90
2018-10-17T17:56:33.096Z,99.90
2018-10-17T17:59:02.158Z,99.90
2018-10-17T18:01:31.276Z,99.90
2018-10-17T18:04:00.625Z,99.90
2018-10-17T18:06:29.660Z,99.90
2018-10-17T18:08:58.731Z,99.90
2018-10-17T18:11:27.860Z,99.90
2018-10-17T18:13:58.177Z,99.90
2018-10-17T18:16:27.236Z,99.90
2018-10-17T18:18:56.376Z,99.90
2018-10-17T18:21:25.724Z,99.90
2018-10-17T18:23:54.829Z,99.90
2018-10-17T18:26:23.912Z,99.90
2018-10-17T18:28:52.985Z,99.90
2018-10-17T18:31:22.469Z,99.90
2018-10-17T18:33:51.573Z,99.90
2018-10-17T18:36:20.625Z,99.90
2018-10-17T18:38:49.721Z,99.90
2018-10-17T18:41:18.824Z,99.90
2018-10-17T18:43:47.949Z,99.90
2018-10-17T18:46:17.247Z,99.90
2018-10-17T18:48:46.341Z,99.90
2018-10-17T18:51:15.468Z,99.90
2018-10-17T18:53:44.532Z,99.90
2018-10-17T18:56:13.726Z,99.90
2018-10-17T18:58:42.701Z,99.90
2018-10-17T19:01:11.838Z,99.90
2018-10-17T19:03:40.908Z,99.90
2018-10-17T19:06:10.316Z,99.90
2018-10-17T19:08:39.684Z,99.90
2018-10-17T19:11:08.759Z,99.90
2018-10-17T19:13:37.884Z,99.90
2018-10-17T19:16:07.011Z,99.90
2018-10-17T19:18:36.064Z,99.90
2018-10-17T19:21:05.227Z,99.90
2018-10-17T19:23:34.256Z,99.90
2018-10-17T19:26:03.344Z,99.90
2018-10-17T19:28:32.569Z,99.90
2018-10-17T19:31:01.632Z,99.90
2018-10-17T19:33:30.768Z,99.90
2018-10-17T19:35:59.915Z,99.90
2018-10-17T19:38:28.945Z,99.90
2018-10-17T19:40:58.024Z,99.90
2018-10-17T19:43:27.132Z,99.90
2018-10-17T19:45:56.253Z,99.90
2018-10-17T19:48:25.312Z,99.90
2018-10-17T19:50:54.470Z,99.90
2018-10-17T19:53:23.516Z,99.90
2018-10-17T19:55:52.680Z,99.90
2018-10-17T19:58:21.732Z,99.90
2018-10-17T20:00:50.925Z,99.90
2018-10-17T20:03:20.000Z,99.90
2018-10-17T20:05:49.160Z,99.90
2018-10-17T20:08:18.218Z,99.90
2018-10-17T20:10:47.284Z,99.90
2018-10-17T20:13:16.472Z,99.90
2018-10-17T20:15:45.517Z,99.90
2018-10-17T20:18:14.577Z,99.90
2018-10-17T20:20:43.693Z,99.90
2018-10-17T20:23:12.831Z,99.90
2018-10-17T20:25:41.881Z,99.90
2018-10-17T20:28:10.940Z,99.90
2018-10-17T20:30:40.040Z,99.90
2018-10-17T20:33:09.359Z,99.90
2018-10-17T20:35:38.376Z,99.90
2018-10-17T20:38:07.588Z,99.90
2018-10-17T20:40:36.673Z,99.90
2018-10-17T20:43:05.852Z,99.90
2018-10-17T20:45:34.944Z,99.90
2018-10-17T20:48:04.049Z,99.90
2018-10-17T20:50:33.132Z,99.90
2018-10-17T20:53:02.204Z,99.90
2018-10-17T20:55:31.333Z,99.90
2018-10-17T20:58:00.698Z,99.90
2018-10-17T21:00:29.854Z,99.90
2018-10-17T21:02:59.297Z,99.90
2018-10-17T21:05:28.808Z,99.90
2018-10-17T21:07:57.935Z,99.90
2018-10-17T21:10:27.037Z,99.90
2018-10-17T21:12:56.140Z,99.90
2018-10-17T21:15:25.220Z,99.90
2018-10-17T21:17:54.531Z,99.90
2018-10-17T21:20:23.608Z,99.90
2018-10-17T21:22:52.993Z,99.90
2018-10-17T21:25:22.094Z,99.90
2018-10-17T21:27:51.176Z,99.90
2018-10-17T21:30:20.289Z,99.90
2018-10-17T21:32:49.370Z,99.90
2018-10-17T21:35:18.965Z,99.90
2018-10-17T21:37:48.038Z,99.90
2018-10-17T21:40:17.100Z,99.90
2018-10-17T21:42:46.224Z,99.90
2018-10-17T21:45:15.316Z,99.90
2018-10-17T21:47:44.376Z,99.90
2018-10-17T21:50:13.603Z,99.90
2018-10-17T21:52:43.521Z,99.90
2018-10-17T21:55:12.578Z,99.90
2018-10-17T21:57:41.632Z,99.90
2018-10-17T22:00:11.420Z,99.90
2018-10-17T22:02:40.620Z,99.90
2018-10-17T22:05:10.772Z,99.90
2018-10-17T22:07:39.923Z,99.90
2018-10-17T22:10:09.648Z,99.90
2018-10-17T22:12:38.876Z,99.90
2018-10-17T22:15:08.832Z,99.90
2018-10-17T22:17:37.943Z,99.90
2018-10-17T22:20:07.866Z,99.90
2018-10-17T22:22:36.974Z,99.90
2018-10-17T22:25:07.265Z,99.90
2018-10-17T22:27:36.376Z,99.90
2018-10-17T22:30:06.504Z,99.90
2018-10-17T22:32:36.004Z,99.90
2018-10-17T22:35:05.396Z,99.90
2018-10-17T22:37:34.540Z,99.90
2018-10-17T22:40:03.681Z,99.90
2018-10-17T22:42:32.863Z,99.90
2018-10-17T22:45:01.979Z,99.90
2018-10-17T22:47:31.048Z,99.90
2018-10-17T22:50:00.244Z,99.90
2018-10-17T22:52:29.552Z,99.90
2018-10-17T22:54:58.659Z,99.90
2018-10-17T22:57:27.788Z,99.90
2018-10-17T22:59:57.052Z,99.90
2018-10-17T23:02:26.165Z,99.90
2018-10-17T23:04:55.368Z,99.90
2018-10-17T23:07:25.901Z,99.90
2018-10-17T23:09:54.970Z,99.90
2018-10-17T23:12:24.348Z,99.90
2018-10-17T23:14:53.477Z,99.90
2018-10-17T23:17:22.564Z,99.90
2018-10-17T23:19:51.669Z,99.90
2018-10-17T23:22:20.865Z,99.90
2018-10-17T23:24:49.989Z,99.90
2018-10-17T23:27:19.137Z,99.90
2018-10-17T23:29:48.232Z,99.90
2018-10-17T23:32:17.784Z,99.90
2018-10-17T23:34:47.024Z,99.90
2018-10-17T23:37:16.212Z,99.90
2018-10-17T23:39:45.344Z,99.90
2018-10-17T23:42:14.566Z,99.90
2018-10-17T23:44:44.044Z,99.90
2018-10-17T23:47:13.211Z,99.90
2018-10-17T23:49:42.772Z,99.90
2018-10-17T23:52:11.847Z,99.90
2018-10-17T23:54:40.928Z,99.90
2018-10-17T23:57:10.088Z,99.90
2018-10-17T23:59:39.220Z,99.90
